sensor_id;sensor_type;location;lat;lon;timestamp;P1;durP1;ratioP1;P2;durP2;ratioP2
40629;SDS011;26329;40.388;-3.710;2024-02-21T00:02:11;3.17;;;3.07;;
40629;SDS011;26329;40.388;-3.710;2024-02-21T00:12:13;6.20;;;5.80;;
40629;SDS011;26329;40.388;-3.710;2024-02-21T00:22:14;6.03;;;5.67;;
40629;SDS011;26329;40.388;-3.710;2024-02-21T00:32:16;5.50;;;5.17;;
40629;SDS011;26329;40.388;-3.710;2024-02-21T00:42:17;5.57;;;5.23;;
40629;SDS011;26329;40.388;-3.710;2024-02-21T00:52:19;5.13;;;4.83;;
40629;SDS011;26329;40.388;-3.710;2024-02-21T01:02:21;4.20;;;4.00;;
40629;SDS011;26329;40.388;-3.710;2024-02-21T01:12:22;4.20;;;3.97;;
40629;SDS011;26329;40.388;-3.710;2024-02-21T01:22:23;4.23;;;4.00;;
40629;SDS011;26329;40.388;-3.710;2024-02-21T01:32:30;3.43;;;3.30;;
40629;SDS011;26329;40.388;-3.710;2024-02-21T01:42:32;3.43;;;3.27;;
40629;SDS011;26329;40.388;-3.710;2024-02-21T01:52:33;3.47;;;3.30;;
40629;SDS011;26329;40.388;-3.710;2024-02-21T02:02:36;2.97;;;2.83;;
40629;SDS011;26329;40.388;-3.710;2024-02-21T02:12:39;3.83;;;3.63;;
40629;SDS011;26329;40.388;-3.710;2024-02-21T02:22:40;4.33;;;4.07;;
40629;SDS011;26329;40.388;-3.710;2024-02-21T02:32:44;3.77;;;3.57;;
40629;SDS011;26329;40.388;-3.710;2024-02-21T02:42:46;3.83;;;3.63;;
40629;SDS011;26329;40.388;-3.710;2024-02-21T02:52:49;3.37;;;3.20;;
40629;SDS011;26329;40.388;-3.710;2024-02-21T03:02:50;3.43;;;3.27;;
40629;SDS011;26329;40.388;-3.710;2024-02-21T03:12:52;3.70;;;3.50;;
40629;SDS011;26329;40.388;-3.710;2024-02-21T03:22:53;3.80;;;3.60;;
40629;SDS011;26329;40.388;-3.710;2024-02-21T03:32:56;3.83;;;3.60;;
40629;SDS011;26329;40.388;-3.710;2024-02-21T03:42:58;3.83;;;3.60;;
40629;SDS011;26329;40.388;-3.710;2024-02-21T03:52:59;3.73;;;3.50;;
40629;SDS011;26329;40.388;-3.710;2024-02-21T04:03:00;3.47;;;3.27;;
40629;SDS011;26329;40.388;-3.710;2024-02-21T04:13:03;3.10;;;2.93;;
40629;SDS011;26329;40.388;-3.710;2024-02-21T04:23:05;2.97;;;2.80;;
40629;SDS011;26329;40.388;-3.710;2024-02-21T04:33:08;2.83;;;2.67;;
40629;SDS011;26329;40.388;-3.710;2024-02-21T04:43:09;3.13;;;2.97;;
40629;SDS011;26329;40.388;-3.710;2024-02-21T04:53:11;3.17;;;3.00;;
40629;SDS011;26329;40.388;-3.710;2024-02-21T05:03:12;3.13;;;2.97;;
40629;SDS011;26329;40.388;-3.710;2024-02-21T05:13:13;2.47;;;2.33;;
40629;SDS011;26329;40.388;-3.710;2024-02-21T05:23:15;3.17;;;3.00;;
40629;SDS011;26329;40.388;-3.710;2024-02-21T05:33:17;3.13;;;2.97;;
40629;SDS011;26329;40.388;-3.710;2024-02-21T05:43:21;3.15;;;3.00;;
40629;SDS011;26329;40.388;-3.710;2024-02-21T05:53:23;3.53;;;3.33;;
40629;SDS011;26329;40.388;-3.710;2024-02-21T06:03:24;3.47;;;3.27;;
40629;SDS011;26329;40.388;-3.710;2024-02-21T06:13:26;3.13;;;2.97;;
40629;SDS011;26329;40.388;-3.710;2024-02-21T06:23:27;2.93;;;2.77;;
40629;SDS011;26329;40.388;-3.710;2024-02-21T06:33:30;2.50;;;2.37;;
40629;SDS011;26329;40.388;-3.710;2024-02-21T06:43:32;2.53;;;2.40;;
40629;SDS011;26329;40.388;-3.710;2024-02-21T06:53:34;2.40;;;2.27;;
40629;SDS011;26329;40.388;-3.710;2024-02-21T07:03:36;1.60;;;1.53;;
40629;SDS011;26329;40.388;-3.710;2024-02-21T07:13:38;2.53;;;2.37;;
40629;SDS011;26329;40.388;-3.710;2024-02-21T07:23:42;2.87;;;2.70;;
40629;SDS011;26329;40.388;-3.710;2024-02-21T07:33:45;2.93;;;2.77;;
40629;SDS011;26329;40.388;-3.710;2024-02-21T07:43:47;2.77;;;2.60;;
40629;SDS011;26329;40.388;-3.710;2024-02-21T07:53:48;3.03;;;2.87;;
40629;SDS011;26329;40.388;-3.710;2024-02-21T08:03:50;3.53;;;3.30;;
40629;SDS011;26329;40.388;-3.710;2024-02-21T08:13:51;3.60;;;3.37;;
40629;SDS011;26329;40.388;-3.710;2024-02-21T08:23:53;3.83;;;3.60;;
40629;SDS011;26329;40.388;-3.710;2024-02-21T08:33:57;4.03;;;3.80;;
40629;SDS011;26329;40.388;-3.710;2024-02-21T08:44:04;5.13;;;4.80;;
40629;SDS011;26329;40.388;-3.710;2024-02-21T08:54:07;4.80;;;4.53;;
40629;SDS011;26329;40.388;-3.710;2024-02-21T09:04:09;5.67;;;5.33;;
40629;SDS011;26329;40.388;-3.710;2024-02-21T09:14:10;7.60;;;7.07;;
40629;SDS011;26329;40.388;-3.710;2024-02-21T09:24:12;7.47;;;6.93;;
40629;SDS011;26329;40.388;-3.710;2024-02-21T09:34:13;7.67;;;7.10;;
40629;SDS011;26329;40.388;-3.710;2024-02-21T09:44:15;8.23;;;7.60;;
40629;SDS011;26329;40.388;-3.710;2024-02-21T09:54:16;8.33;;;7.70;;
40629;SDS011;26329;40.388;-3.710;2024-02-21T10:04:19;8.53;;;7.90;;
40629;SDS011;26329;40.388;-3.710;2024-02-21T10:14:21;9.47;;;8.70;;
40629;SDS011;26329;40.388;-3.710;2024-02-21T10:24:28;10.80;;;9.87;;
40629;SDS011;26329;40.388;-3.710;2024-02-21T10:34:30;10.63;;;9.77;;
40629;SDS011;26329;40.388;-3.710;2024-02-21T10:44:38;11.80;;;10.73;;
40629;SDS011;26329;40.388;-3.710;2024-02-21T10:54:56;12.03;;;10.90;;
40629;SDS011;26329;40.388;-3.710;2024-02-21T11:05:02;11.47;;;10.43;;
40629;SDS011;26329;40.388;-3.710;2024-02-21T11:15:05;11.47;;;10.43;;
40629;SDS011;26329;40.388;-3.710;2024-02-21T11:25:07;12.60;;;11.37;;
40629;SDS011;26329;40.388;-3.710;2024-02-21T11:35:18;13.13;;;11.80;;
40629;SDS011;26329;40.388;-3.710;2024-02-21T11:45:20;13.70;;;12.20;;
40629;SDS011;26329;40.388;-3.710;2024-02-21T11:55:22;13.93;;;12.40;;
40629;SDS011;26329;40.388;-3.710;2024-02-21T12:05:25;14.27;;;12.63;;
40629;SDS011;26329;40.388;-3.710;2024-02-21T12:15:31;12.37;;;11.20;;
40629;SDS011;26329;40.388;-3.710;2024-02-21T12:25:32;13.10;;;11.80;;
40629;SDS011;26329;40.388;-3.710;2024-02-21T12:35:34;13.90;;;12.40;;
40629;SDS011;26329;40.388;-3.710;2024-02-21T12:45:36;15.23;;;12.97;;
40629;SDS011;26329;40.388;-3.710;2024-02-21T12:55:39;14.73;;;12.97;;
40629;SDS011;26329;40.388;-3.710;2024-02-21T13:05:41;14.97;;;12.83;;
40629;SDS011;26329;40.388;-3.710;2024-02-21T13:15:44;15.13;;;13.13;;
40629;SDS011;26329;40.388;-3.710;2024-02-21T13:25:46;15.47;;;13.20;;
40629;SDS011;26329;40.388;-3.710;2024-02-21T13:35:47;15.77;;;13.27;;
40629;SDS011;26329;40.388;-3.710;2024-02-21T13:45:57;15.43;;;13.25;;
40629;SDS011;26329;40.388;-3.710;2024-02-21T13:56:00;16.20;;;13.37;;
40629;SDS011;26329;40.388;-3.710;2024-02-21T14:06:04;16.57;;;13.57;;
40629;SDS011;26329;40.388;-3.710;2024-02-21T14:16:10;15.88;;;13.32;;
40629;SDS011;26329;40.388;-3.710;2024-02-21T14:26:14;16.23;;;13.30;;
40629;SDS011;26329;40.388;-3.710;2024-02-21T14:36:15;17.10;;;13.60;;
40629;SDS011;26329;40.388;-3.710;2024-02-21T14:46:18;16.70;;;13.68;;
40629;SDS011;26329;40.388;-3.710;2024-02-21T14:56:22;18.10;;;14.03;;
40629;SDS011;26329;40.388;-3.710;2024-02-21T15:06:25;18.43;;;14.13;;
40629;SDS011;26329;40.388;-3.710;2024-02-21T15:16:30;17.93;;;13.93;;
40629;SDS011;26329;40.388;-3.710;2024-02-21T15:26:31;16.70;;;13.47;;
40629;SDS011;26329;40.388;-3.710;2024-02-21T15:36:34;16.33;;;13.45;;
40629;SDS011;26329;40.388;-3.710;2024-02-21T15:46:36;17.40;;;13.80;;
40629;SDS011;26329;40.388;-3.710;2024-02-21T15:56:38;18.13;;;14.03;;
40629;SDS011;26329;40.388;-3.710;2024-02-21T16:06:41;18.40;;;14.35;;
40629;SDS011;26329;40.388;-3.710;2024-02-21T16:16:43;19.90;;;14.73;;
40629;SDS011;26329;40.388;-3.710;2024-02-21T16:26:45;19.03;;;14.30;;
40629;SDS011;26329;40.388;-3.710;2024-02-21T16:36:46;17.77;;;13.90;;
40629;SDS011;26329;40.388;-3.710;2024-02-21T16:46:49;16.63;;;13.57;;
40629;SDS011;26329;40.388;-3.710;2024-02-21T16:56:51;17.80;;;13.97;;
40629;SDS011;26329;40.388;-3.710;2024-02-21T17:27:00;11.00;;;10.03;;
40629;SDS011;26329;40.388;-3.710;2024-02-21T17:37:04;14.20;;;12.50;;
40629;SDS011;26329;40.388;-3.710;2024-02-21T17:57:09;11.93;;;10.80;;
40629;SDS011;26329;40.388;-3.710;2024-02-21T18:07:12;13.70;;;12.13;;
40629;SDS011;26329;40.388;-3.710;2024-02-21T18:17:14;14.33;;;12.53;;
40629;SDS011;26329;40.388;-3.710;2024-02-21T18:27:17;14.93;;;12.98;;
40629;SDS011;26329;40.388;-3.710;2024-02-21T18:37:18;14.63;;;12.53;;
40629;SDS011;26329;40.388;-3.710;2024-02-21T18:47:23;14.63;;;12.70;;
40629;SDS011;26329;40.388;-3.710;2024-02-21T18:57:26;14.68;;;12.77;;
40629;SDS011;26329;40.388;-3.710;2024-02-21T19:07:29;15.15;;;13.20;;
40629;SDS011;26329;40.388;-3.710;2024-02-21T19:17:34;15.23;;;13.00;;
40629;SDS011;26329;40.388;-3.710;2024-02-21T19:27:37;15.37;;;13.13;;
40629;SDS011;26329;40.388;-3.710;2024-02-21T19:37:43;15.07;;;12.93;;
40629;SDS011;26329;40.388;-3.710;2024-02-21T19:47:46;14.38;;;12.48;;
40629;SDS011;26329;40.388;-3.710;2024-02-21T19:57:47;14.53;;;12.60;;
40629;SDS011;26329;40.388;-3.710;2024-02-21T20:07:51;14.87;;;12.97;;
40629;SDS011;26329;40.388;-3.710;2024-02-21T20:17:52;13.40;;;11.87;;
40629;SDS011;26329;40.388;-3.710;2024-02-21T20:27:56;13.53;;;11.97;;
40629;SDS011;26329;40.388;-3.710;2024-02-21T20:38:00;14.30;;;12.47;;
40629;SDS011;26329;40.388;-3.710;2024-02-21T20:48:06;14.17;;;12.53;;
40629;SDS011;26329;40.388;-3.710;2024-02-21T20:58:08;14.07;;;12.37;;
40629;SDS011;26329;40.388;-3.710;2024-02-21T21:08:09;13.70;;;12.13;;
40629;SDS011;26329;40.388;-3.710;2024-02-21T21:18:12;13.77;;;12.27;;
40629;SDS011;26329;40.388;-3.710;2024-02-21T21:28:16;13.87;;;12.40;;
40629;SDS011;26329;40.388;-3.710;2024-02-21T21:38:19;13.48;;;12.07;;
40629;SDS011;26329;40.388;-3.710;2024-02-21T21:48:21;13.53;;;12.07;;
40629;SDS011;26329;40.388;-3.710;2024-02-21T21:58:24;14.43;;;12.80;;
40629;SDS011;26329;40.388;-3.710;2024-02-21T22:08:26;13.67;;;12.13;;
40629;SDS011;26329;40.388;-3.710;2024-02-21T22:18:29;13.60;;;12.20;;
40629;SDS011;26329;40.388;-3.710;2024-02-21T22:28:34;13.23;;;11.83;;
40629;SDS011;26329;40.388;-3.710;2024-02-21T22:38:36;13.83;;;12.10;;
40629;SDS011;26329;40.388;-3.710;2024-02-21T22:48:37;13.73;;;12.17;;
40629;SDS011;26329;40.388;-3.710;2024-02-21T22:58:40;13.70;;;12.10;;
40629;SDS011;26329;40.388;-3.710;2024-02-21T23:08:41;14.37;;;12.53;;
40629;SDS011;26329;40.388;-3.710;2024-02-21T23:18:43;14.17;;;12.40;;
40629;SDS011;26329;40.388;-3.710;2024-02-21T23:28:44;13.87;;;12.20;;
40629;SDS011;26329;40.388;-3.710;2024-02-21T23:38:45;13.83;;;12.13;;
40629;SDS011;26329;40.388;-3.710;2024-02-21T23:48:47;14.97;;;12.70;;
40629;SDS011;26329;40.388;-3.710;2024-02-21T23:58:48;14.47;;;12.53;;
